IBE725 LEMD-EGLL
Flight info
| Callsign | IBE725 |
|---|---|
| Flight time | N/A |
| Altitude | 34000 |
| Route | SIE N858 DGO N867 NENEM DCT DIDIG UP87 ROXOG |
| Aircraft | A320/M-SDE3FGHIRWY/LB1 |
Departure
| Time | N/A |
|---|---|
| Airport | Adolfo Suárez Madrid–Barajas Airport (LEMD) |
Arrival
| Time | 2026-04-30 18:27 |
|---|---|
| Airport | London Heathrow Airport (EGLL) |
| Time | Latitude | Longitude | Altitude | Speed | Heading |
|---|---|---|---|---|---|
| 2026-04-30 17:39 | 46.83824 | -2.05630 | 36105 ft | 443 kts | 9° |
| 2026-04-30 17:42 | 47.14294 | -1.98020 | 36101 ft | 446 kts | 9° |
| 2026-04-30 17:43 | 47.28553 | -1.94481 | 36107 ft | 446 kts | 9° |
| 2026-04-30 17:44 | 47.37785 | -1.93172 | 36107 ft | 446 kts | 356° |
| 2026-04-30 17:44 | 47.47075 | -1.94188 | 36102 ft | 446 kts | 356° |
| 2026-04-30 17:47 | 47.74461 | -1.90793 | 36083 ft | 445 kts | 19° |
| 2026-04-30 17:48 | 47.95021 | -1.80295 | 36071 ft | 447 kts | 19° |
| 2026-04-30 17:50 | 48.19306 | -1.74321 | 36069 ft | 449 kts | 359° |
| 2026-04-30 17:52 | 48.38087 | -1.74550 | 36069 ft | 450 kts | 360° |
| 2026-04-30 17:54 | 48.66304 | -1.74894 | 36071 ft | 451 kts | 360° |
| 2026-04-30 17:56 | 48.91432 | -1.75194 | 36068 ft | 451 kts | 0° |
| 2026-04-30 17:58 | 49.10203 | -1.74462 | 36077 ft | 451 kts | 2° |
| 2026-04-30 18:00 | 49.35303 | -1.73501 | 36083 ft | 452 kts | 2° |
| 2026-04-30 18:01 | 49.51017 | -1.72896 | 36096 ft | 452 kts | 2° |
| 2026-04-30 18:02 | 49.69864 | -1.71785 | 36098 ft | 452 kts | 4° |
| 2026-04-30 18:04 | 49.88778 | -1.70084 | 34020 ft | 453 kts | 4° |
| 2026-04-30 18:05 | 50.01146 | -1.68547 | 31766 ft | 438 kts | 15° |
| 2026-04-30 18:06 | 50.12582 | -1.63055 | 29722 ft | 423 kts | 19° |
| 2026-04-30 18:07 | 50.23583 | -1.57718 | 27882 ft | 405 kts | 19° |
| 2026-04-30 18:08 | 50.31547 | -1.53826 | 26585 ft | 394 kts | 19° |
| 2026-04-30 18:09 | 50.41828 | -1.48787 | 24864 ft | 384 kts | 21° |
| 2026-04-30 18:10 | 50.51957 | -1.43802 | 22979 ft | 379 kts | 21° |
| 2026-04-30 18:11 | 50.61140 | -1.36582 | 21169 ft | 365 kts | 33° |
| 2026-04-30 18:11 | 50.67788 | -1.30869 | 19860 ft | 361 kts | 33° |
| 2026-04-30 18:12 | 50.74387 | -1.25173 | 18554 ft | 360 kts | 33° |
| 2026-04-30 18:13 | 50.78707 | -1.21226 | 17658 ft | 356 kts | 36° |
| 2026-04-30 18:13 | 50.84160 | -1.15529 | 16533 ft | 351 kts | 38° |
| 2026-04-30 18:14 | 50.88889 | -1.10549 | 15568 ft | 348 kts | 37° |
| 2026-04-30 18:15 | 50.94908 | -1.04292 | 14336 ft | 345 kts | 37° |
| 2026-04-30 18:15 | 51.00796 | -0.97883 | 13173 ft | 332 kts | 48° |
| 2026-04-30 18:16 | 51.03821 | -0.92597 | 13148 ft | 321 kts | 52° |
| 2026-04-30 18:16 | 51.06860 | -0.87187 | 11852 ft | 334 kts | 52° |
| 2026-04-30 18:17 | 51.08388 | -0.84472 | 11466 ft | 322 kts | 52° |
| 2026-04-30 18:17 | 51.09864 | -0.81855 | 11157 ft | 315 kts | 52° |
| 2026-04-30 18:17 | 51.13146 | -0.77426 | 10569 ft | 313 kts | 22° |
| 2026-04-30 18:18 | 51.15268 | -0.76861 | 10330 ft | 310 kts | 3° |
| 2026-04-30 18:18 | 51.17420 | -0.76832 | 10100 ft | 309 kts | 1° |
| 2026-04-30 18:18 | 51.19543 | -0.76857 | 9792 ft | 309 kts | 1° |
| 2026-04-30 18:18 | 51.21714 | -0.76889 | 9395 ft | 307 kts | 1° |
| 2026-04-30 18:19 | 51.23811 | -0.76917 | 9017 ft | 304 kts | 1° |
| 2026-04-30 18:19 | 51.25917 | -0.77198 | 8639 ft | 305 kts | 352° |
| 2026-04-30 18:19 | 51.28005 | -0.77748 | 8262 ft | 303 kts | 351° |
| 2026-04-30 18:19 | 51.30074 | -0.78319 | 7889 ft | 301 kts | 351° |
| 2026-04-30 18:20 | 51.32127 | -0.78881 | 7509 ft | 298 kts | 351° |
| 2026-04-30 18:20 | 51.34167 | -0.79442 | 7123 ft | 297 kts | 351° |
| 2026-04-30 18:20 | 51.36198 | -0.80002 | 6716 ft | 295 kts | 351° |
| 2026-04-30 18:20 | 51.38216 | -0.80552 | 6292 ft | 292 kts | 351° |
| 2026-04-30 18:21 | 51.40178 | -0.81082 | 5858 ft | 280 kts | 351° |
| 2026-04-30 18:21 | 51.42062 | -0.81594 | 5431 ft | 269 kts | 351° |
| 2026-04-30 18:21 | 51.43873 | -0.82089 | 5056 ft | 259 kts | 351° |
| 2026-04-30 18:21 | 51.45629 | -0.82472 | 4501 ft | 255 kts | 4° |
| 2026-04-30 18:22 | 51.47351 | -0.81682 | 3643 ft | 264 kts | 38° |
| 2026-04-30 18:22 | 51.48397 | -0.77174 | 3044 ft | 201 kts | 118° |
| 2026-04-30 18:22 | 51.47740 | -0.75383 | 2993 ft | 180 kts | 116° |
| 2026-04-30 18:23 | 51.47623 | -0.73413 | 2988 ft | 178 kts | 89° |
| 2026-04-30 18:23 | 51.47666 | -0.71460 | 2861 ft | 172 kts | 95° |
| 2026-04-30 18:23 | 51.47656 | -0.69547 | 2664 ft | 171 kts | 95° |
| 2026-04-30 18:23 | 51.47659 | -0.67651 | 2449 ft | 170 kts | 94° |
| 2026-04-30 18:24 | 51.47675 | -0.63855 | 1998 ft | 170 kts | 92° |
| 2026-04-30 18:24 | 51.47685 | -0.62061 | 1809 ft | 160 kts | 92° |
| 2026-04-30 18:24 | 51.47695 | -0.60278 | 1559 ft | 151 kts | 92° |
| 2026-04-30 18:25 | 51.47702 | -0.58603 | 1354 ft | 148 kts | 90° |
| 2026-04-30 18:25 | 51.47718 | -0.55341 | 962 ft | 145 kts | 90° |
| 2026-04-30 18:25 | 51.47725 | -0.53768 | 785 ft | 134 kts | 90° |
| 2026-04-30 18:26 | 51.47724 | -0.50910 | 368 ft | 129 kts | 90° |
| 2026-04-30 18:26 | 51.47781 | -0.49467 | 305 ft | 130 kts | 90° |
| 2026-04-30 18:26 | 51.47761 | -0.48051 | 106 ft | 119 kts | 89° |
| 2026-04-30 18:27 | 51.47758 | -0.46288 | 89 ft | 26 kts | 103° |
| 2026-04-30 18:27 | 51.47673 | -0.46106 | 87 ft | 11 kts | 147° |
| 2026-04-30 18:28 | 51.47636 | -0.46074 | 90 ft | 5 kts | 167° |
| 2026-04-30 18:28 | 51.47596 | -0.46103 | 90 ft | 8 kts | 235° |
| 2026-04-30 18:28 | 51.47590 | -0.46303 | 86 ft | 8 kts | 270° |
| 2026-04-30 18:29 | 51.47590 | -0.46388 | 86 ft | 7 kts | 270° |
| 2026-04-30 18:29 | 51.47590 | -0.46526 | 86 ft | 5 kts | 268° |
| 2026-04-30 18:30 | 51.47590 | -0.46686 | 86 ft | 14 kts | 272° |
| 2026-04-30 18:30 | 51.47580 | -0.47216 | 90 ft | 24 kts | 269° |
| 2026-04-30 18:31 | 51.47577 | -0.47445 | 86 ft | 23 kts | 270° |
| 2026-04-30 18:31 | 51.47579 | -0.47923 | 87 ft | 20 kts | 269° |
| 2026-04-30 18:32 | 51.47577 | -0.48338 | 86 ft | 17 kts | 270° |
| 2026-04-30 18:32 | 51.47563 | -0.48451 | 90 ft | 14 kts | 231° |
| 2026-04-30 18:32 | 51.47396 | -0.48467 | 86 ft | 11 kts | 185° |
| 2026-04-30 18:33 | 51.47326 | -0.48473 | 86 ft | 10 kts | 179° |
| 2026-04-30 18:33 | 51.47241 | -0.48472 | 88 ft | 8 kts | 180° |
| 2026-04-30 18:33 | 51.47228 | -0.48472 | 88 ft | 8 kts | 180° |
| 2026-04-30 18:34 | 51.47178 | -0.48472 | 89 ft | 7 kts | 180° |
| 2026-04-30 18:34 | 51.47081 | -0.48470 | 90 ft | 8 kts | 178° |
| 2026-04-30 18:34 | 51.47049 | -0.48512 | 90 ft | 6 kts | 256° |
| 2026-04-30 18:35 | 51.47048 | -0.48574 | 88 ft | 5 kts | 270° |
| 2026-04-30 18:35 | 51.47048 | -0.48592 | 90 ft | 0 kts | 268° |